Time;durP1;ratioP1;P1;durP2;ratioP2;P2;SDS_P1;SDS_P2;PMS_P1;PMS_P2;Temp;Humidity;BMP_temperature;BMP_pressure;BME280_temperature;BME280_humidity;BME280_pressure;Samples;Min_cycle;Max_cycle;Signal;HPM_P1;HPM_P2
2023/05/23 00:00:14;;;;;;;13.63;12.23;;;;;;;;;;5077747;28;20223;-64
2023/05/23 00:02:45;;;;;;;15.10;12.47;;;;;;;;;;5077547;28;20204;-63
2023/05/23 00:05:16;;;;;;;16.20;12.07;;;;;;;;;;5077939;28;20745;-63
2023/05/23 00:07:44;;;;;;;20.77;12.87;;;;;;;;;;5077744;28;20247;-63
2023/05/23 00:10:13;;;;;;;15.63;11.87;;;;;;;;;;5078237;28;20234;-63
2023/05/23 00:12:41;;;;;;;14.00;12.57;;;;;;;;;;5077317;28;20229;-64
2023/05/23 00:15:09;;;;;;;12.80;11.43;;;;;;;;;;5077934;28;20234;-64
2023/05/23 00:17:38;;;;;;;15.93;11.73;;;;;;;;;;5077397;28;20202;-64
2023/05/23 00:20:10;;;;;;;13.20;11.60;;;;;;;;;;5078048;28;20204;-64
2023/05/23 00:22:41;;;;;;;13.40;12.00;;;;;;;;;;5077706;28;20225;-64
2023/05/23 00:25:10;;;;;;;16.00;12.10;;;;;;;;;;5077443;28;20770;-64
2023/05/23 00:27:38;;;;;;;16.47;11.97;;;;;;;;;;5077770;28;20207;-65
2023/05/23 00:30:06;;;;;;;16.43;12.17;;;;;;;;;;5077824;28;20234;-65
2023/05/23 00:32:35;;;;;;;13.60;11.53;;;;;;;;;;5077534;28;20238;-64
2023/05/23 00:35:03;;;;;;;14.90;12.73;;;;;;;;;;5077669;28;20210;-64
2023/05/23 00:37:33;;;;;;;14.33;11.73;;;;;;;;;;5077520;28;20237;-63
2023/05/23 00:40:01;;;;;;;12.90;11.60;;;;;;;;;;5077488;28;20206;-62
2023/05/23 00:42:31;;;;;;;13.63;12.23;;;;;;;;;;5077802;28;20202;-65
2023/05/23 00:44:59;;;;;;;13.33;11.90;;;;;;;;;;5077723;28;20217;-64
2023/05/23 00:47:27;;;;;;;14.53;12.00;;;;;;;;;;5077540;28;20210;-65
2023/05/23 00:49:55;;;;;;;16.83;13.27;;;;;;;;;;5077652;28;20202;-64
2023/05/23 00:52:23;;;;;;;14.33;11.77;;;;;;;;;;5077715;28;20630;-65
2023/05/23 00:54:53;;;;;;;15.80;12.30;;;;;;;;;;5077317;28;20206;-64
2023/05/23 00:57:21;;;;;;;16.30;12.43;;;;;;;;;;5077689;28;20203;-64
2023/05/23 00:59:50;;;;;;;14.40;11.50;;;;;;;;;;5077285;28;20211;-65
2023/05/23 01:02:20;;;;;;;15.37;11.90;;;;;;;;;;5077049;28;20236;-65
2023/05/23 01:04:53;;;;;;;13.20;11.20;;;;;;;;;;5077284;28;20612;-65
2023/05/23 01:07:21;;;;;;;17.73;12.90;;;;;;;;;;5077586;28;20216;-64
2023/05/23 01:09:49;;;;;;;14.70;12.50;;;;;;;;;;5077453;28;20211;-64
2023/05/23 01:12:20;;;;;;;14.43;11.43;;;;;;;;;;5077397;28;20235;-64
2023/05/23 01:14:51;;;;;;;14.73;12.07;;;;;;;;;;5077161;28;20209;-64
2023/05/23 01:17:24;;;;;;;14.03;12.13;;;;;;;;;;5077006;28;20200;-64
2023/05/23 01:19:59;;;;;;;14.77;12.17;;;;;;;;;;5077417;28;20222;-64
2023/05/23 01:22:38;;;;;;;15.27;12.77;;;;;;;;;;5077173;28;20207;-64
2023/05/23 01:25:10;;;;;;;14.10;12.30;;;;;;;;;;5069097;28;20207;-64
2023/05/23 01:27:45;;;;;;;14.90;13.30;;;;;;;;;;5079068;28;20200;-64
2023/05/23 01:30:14;;;;;;;13.70;12.10;;;;;;;;;;5080858;28;20203;-64
2023/05/23 01:32:42;;;;;;;15.63;12.50;;;;;;;;;;5080645;28;20712;-64
2023/05/23 01:35:10;;;;;;;16.63;12.60;;;;;;;;;;5080633;28;20251;-64
2023/05/23 01:37:38;;;;;;;15.50;13.40;;;;;;;;;;5080649;28;20209;-64
2023/05/23 01:40:08;;;;;;;15.23;12.17;;;;;;;;;;5081043;28;20208;-64
2023/05/23 01:42:36;;;;;;;20.13;13.50;;;;;;;;;;5080938;28;20206;-65
2023/05/23 01:45:06;;;;;;;15.10;13.10;;;;;;;;;;5080661;28;20615;-65
2023/05/23 01:47:35;;;;;;;15.90;12.53;;;;;;;;;;5080630;28;20215;-63
2023/05/23 01:50:04;;;;;;;15.10;12.73;;;;;;;;;;5080947;28;20298;-65
2023/05/23 01:52:32;;;;;;;15.83;12.73;;;;;;;;;;5080648;28;20277;-64
2023/05/23 01:55:00;;;;;;;17.70;13.17;;;;;;;;;;5080428;28;20263;-63
2023/05/23 01:57:29;;;;;;;16.53;13.07;;;;;;;;;;5080585;28;20210;-65
2023/05/23 01:59:57;;;;;;;13.57;12.07;;;;;;;;;;5080418;28;20206;-63
2023/05/23 02:02:27;;;;;;;13.67;12.03;;;;;;;;;;5079993;28;20239;-63
2023/05/23 02:04:56;;;;;;;16.10;13.80;;;;;;;;;;5080222;28;20207;-63
2023/05/23 02:07:25;;;;;;;14.73;12.47;;;;;;;;;;5079934;28;20239;-62
2023/05/23 02:09:53;;;;;;;15.40;12.67;;;;;;;;;;5080250;28;20210;-62
2023/05/23 02:12:21;;;;;;;18.10;14.77;;;;;;;;;;5080633;28;20233;-63
2023/05/23 02:14:50;;;;;;;14.77;11.97;;;;;;;;;;5080072;28;20216;-62
2023/05/23 02:17:20;;;;;;;13.63;12.13;;;;;;;;;;5080018;28;20227;-65
2023/05/23 02:19:50;;;;;;;16.73;12.63;;;;;;;;;;5080258;28;20207;-65
2023/05/23 02:22:22;;;;;;;16.50;13.47;;;;;;;;;;5079851;28;20237;-64
2023/05/23 02:24:50;;;;;;;17.23;13.00;;;;;;;;;;5079966;28;20214;-63
2023/05/23 02:27:19;;;;;;;15.27;12.23;;;;;;;;;;5079621;28;20861;-64
2023/05/23 02:29:47;;;;;;;15.07;12.40;;;;;;;;;;5079994;28;20210;-63
2023/05/23 02:32:15;;;;;;;15.30;12.57;;;;;;;;;;5079458;28;20227;-64
2023/05/23 02:34:45;;;;;;;16.23;12.27;;;;;;;;;;5079917;28;20233;-64
2023/05/23 02:37:15;;;;;;;20.17;14.23;;;;;;;;;;5078883;28;20202;-64
2023/05/23 02:39:43;;;;;;;17.13;13.07;;;;;;;;;;5079574;28;20261;-62
2023/05/23 02:42:11;;;;;;;16.63;12.57;;;;;;;;;;5079697;28;20207;-63
2023/05/23 02:44:39;;;;;;;17.00;14.10;;;;;;;;;;5079649;28;20264;-63
2023/05/23 02:47:07;;;;;;;19.10;14.20;;;;;;;;;;5079474;28;20280;-64
2023/05/23 02:49:35;;;;;;;17.33;13.53;;;;;;;;;;5079572;28;20203;-64
2023/05/23 02:52:03;;;;;;;19.90;15.30;;;;;;;;;;5079196;28;20260;-63
2023/05/23 02:54:33;;;;;;;17.37;13.40;;;;;;;;;;5079213;28;20669;-64
2023/05/23 02:57:01;;;;;;;19.00;14.30;;;;;;;;;;5079350;28;20642;-64
2023/05/23 02:59:29;;;;;;;17.87;14.13;;;;;;;;;;5079338;28;20214;-64
2023/05/23 03:01:57;;;;;;;21.43;15.50;;;;;;;;;;5078644;28;20238;-64
2023/05/23 03:04:26;;;;;;;17.93;13.50;;;;;;;;;;5079233;28;20654;-64
2023/05/23 03:06:54;;;;;;;20.77;15.27;;;;;;;;;;5079200;28;20762;-64
2023/05/23 03:09:22;;;;;;;21.97;15.10;;;;;;;;;;5079076;28;20210;-64
2023/05/23 03:11:51;;;;;;;17.73;14.43;;;;;;;;;;5078829;28;20206;-64
2023/05/23 03:14:20;;;;;;;20.03;14.77;;;;;;;;;;5078954;28;20261;-64
2023/05/23 03:16:48;;;;;;;18.83;14.60;;;;;;;;;;5078780;28;20313;-64
2023/05/23 03:19:16;;;;;;;20.57;13.67;;;;;;;;;;5078909;28;20562;-64
2023/05/23 03:21:44;;;;;;;20.90;15.77;;;;;;;;;;5078839;28;20284;-64
2023/05/23 03:24:12;;;;;;;20.33;14.33;;;;;;;;;;5078448;28;20205;-64
2023/05/23 03:26:40;;;;;;;18.67;14.53;;;;;;;;;;5075207;28;20272;-64
2023/05/23 03:29:10;;;;;;;19.13;14.70;;;;;;;;;;5065496;28;20202;-64
2023/05/23 03:31:38;;;;;;;20.60;14.53;;;;;;;;;;5078171;28;20549;-64
2023/05/23 03:34:07;;;;;;;19.83;15.47;;;;;;;;;;5078671;28;20226;-64
2023/05/23 03:36:38;;;;;;;21.00;14.80;;;;;;;;;;5078508;28;20226;-65
2023/05/23 03:39:06;;;;;;;22.27;16.70;;;;;;;;;;5078081;28;20214;-63
2023/05/23 03:41:34;;;;;;;21.00;15.63;;;;;;;;;;5078497;28;20203;-65
2023/05/23 03:44:02;;;;;;;23.13;15.47;;;;;;;;;;5078142;28;20209;-65
2023/05/23 03:46:32;;;;;;;21.30;15.77;;;;;;;;;;5078015;28;20285;-65
2023/05/23 03:49:00;;;;;;;22.10;15.97;;;;;;;;;;5078419;28;20207;-64
2023/05/23 03:51:28;;;;;;;23.83;16.07;;;;;;;;;;5078038;28;20572;-65
2023/05/23 03:53:57;;;;;;;21.83;16.70;;;;;;;;;;5077908;28;20586;-65
2023/05/23 03:56:25;;;;;;;22.27;15.90;;;;;;;;;;5078153;28;20226;-64
2023/05/23 03:58:53;;;;;;;22.57;14.90;;;;;;;;;;5077970;28;20252;-65
2023/05/23 04:01:21;;;;;;;22.47;15.33;;;;;;;;;;5077614;28;20261;-64
2023/05/23 04:03:51;;;;;;;21.37;14.77;;;;;;;;;;5078203;28;20202;-64
2023/05/23 04:06:21;;;;;;;19.13;15.07;;;;;;;;;;5077744;28;20285;-65
2023/05/23 04:08:49;;;;;;;21.67;15.57;;;;;;;;;;5077887;28;20210;-65
2023/05/23 04:11:17;;;;;;;20.27;15.67;;;;;;;;;;5077813;28;20549;-65
2023/05/23 04:13:46;;;;;;;22.37;16.67;;;;;;;;;;5077884;28;20229;-63
2023/05/23 04:16:14;;;;;;;23.23;15.50;;;;;;;;;;5077411;28;20260;-65
2023/05/23 04:18:42;;;;;;;20.70;15.30;;;;;;;;;;5077767;28;20641;-65
2023/05/23 04:21:11;;;;;;;20.20;15.60;;;;;;;;;;5077720;28;20707;-63
2023/05/23 04:23:39;;;;;;;22.17;16.20;;;;;;;;;;5077571;28;20198;-65
2023/05/23 04:26:08;;;;;;;25.03;15.70;;;;;;;;;;5077822;28;20279;-65
2023/05/23 04:28:38;;;;;;;18.53;15.43;;;;;;;;;;5077799;28;20202;-65
2023/05/23 04:31:06;;;;;;;23.80;15.30;;;;;;;;;;5077539;28;20222;-64
2023/05/23 04:33:35;;;;;;;24.43;17.10;;;;;;;;;;5077702;28;20222;-64
2023/05/23 04:36:03;;;;;;;21.67;15.73;;;;;;;;;;5077516;28;20256;-64
2023/05/23 04:38:32;;;;;;;21.57;16.20;;;;;;;;;;5077693;28;20210;-64
2023/05/23 04:41:01;;;;;;;27.97;17.17;;;;;;;;;;5077863;28;20260;-64
2023/05/23 04:43:32;;;;;;;24.60;16.73;;;;;;;;;;5077887;28;20265;-65
2023/05/23 04:46:01;;;;;;;24.77;17.90;;;;;;;;;;5078224;28;20222;-64
2023/05/23 04:48:30;;;;;;;21.67;16.17;;;;;;;;;;5077878;28;20202;-64
2023/05/23 04:51:01;;;;;;;23.70;16.73;;;;;;;;;;5077801;28;20216;-64
2023/05/23 04:53:29;;;;;;;22.10;16.13;;;;;;;;;;5077411;28;20234;-64
2023/05/23 04:55:58;;;;;;;26.47;17.90;;;;;;;;;;5077722;28;20233;-64
2023/05/23 04:58:26;;;;;;;23.90;17.83;;;;;;;;;;5077940;28;20218;-64
2023/05/23 05:00:54;;;;;;;21.40;16.40;;;;;;;;;;5076753;28;20245;-64
2023/05/23 05:03:23;;;;;;;24.67;17.73;;;;;;;;;;5075419;28;20221;-64
2023/05/23 05:05:51;;;;;;;21.40;16.23;;;;;;;;;;5076428;28;20704;-63
2023/05/23 05:08:19;;;;;;;21.80;16.83;;;;;;;;;;5077808;28;20237;-63
2023/05/23 05:10:48;;;;;;;24.47;17.70;;;;;;;;;;5076478;28;20207;-64
2023/05/23 05:13:17;;;;;;;22.87;17.60;;;;;;;;;;5078865;28;20194;-64
2023/05/23 05:15:46;;;;;;;24.63;17.37;;;;;;;;;;5069779;28;20308;-64
2023/05/23 05:18:15;;;;;;;24.67;17.10;;;;;;;;;;5073068;28;20210;-64
2023/05/23 05:20:43;;;;;;;25.10;16.40;;;;;;;;;;5077552;28;20717;-64
2023/05/23 05:23:11;;;;;;;22.50;16.90;;;;;;;;;;5069341;28;20206;-63
2023/05/23 05:25:40;;;;;;;24.63;17.23;;;;;;;;;;5077528;28;20222;-64
2023/05/23 05:28:08;;;;;;;31.33;19.00;;;;;;;;;;5071527;28;20198;-64
2023/05/23 05:30:37;;;;;;;22.83;16.97;;;;;;;;;;5070815;28;20225;-64
2023/05/23 05:33:06;;;;;;;23.33;17.07;;;;;;;;;;5080764;28;20206;-64
2023/05/23 05:35:37;;;;;;;26.37;17.20;;;;;;;;;;5080358;28;20234;-64
2023/05/23 05:38:07;;;;;;;26.47;17.10;;;;;;;;;;5080688;28;20230;-64
2023/05/23 05:40:35;;;;;;;20.63;16.00;;;;;;;;;;5080458;28;20285;-64
2023/05/23 05:43:03;;;;;;;25.03;16.33;;;;;;;;;;5080390;28;20218;-64
2023/05/23 05:45:31;;;;;;;24.20;17.37;;;;;;;;;;5080102;28;20230;-64
2023/05/23 05:48:00;;;;;;;21.33;15.60;;;;;;;;;;5080633;28;20210;-64
2023/05/23 05:50:28;;;;;;;25.13;17.13;;;;;;;;;;5079920;28;20236;-64
2023/05/23 05:52:56;;;;;;;24.53;18.00;;;;;;;;;;5067897;28;20277;-64
2023/05/23 05:55:24;;;;;;;25.57;18.23;;;;;;;;;;5080101;28;20226;-64
2023/05/23 05:57:52;;;;;;;21.23;16.70;;;;;;;;;;5080283;28;20210;-64
2023/05/23 06:00:21;;;;;;;27.10;18.13;;;;;;;;;;5079627;28;20212;-64
2023/05/23 06:02:50;;;;;;;23.47;16.57;;;;;;;;;;5080364;28;20245;-64
2023/05/23 06:05:20;;;;;;;22.63;17.20;;;;;;;;;;5080009;28;20221;-64
2023/05/23 06:07:48;;;;;;;28.73;17.97;;;;;;;;;;5079502;28;20247;-64
2023/05/23 06:10:16;;;;;;;25.83;17.63;;;;;;;;;;5079336;28;20260;-64
2023/05/23 06:12:45;;;;;;;28.57;17.90;;;;;;;;;;5079819;28;20206;-64
2023/05/23 06:15:13;;;;;;;28.40;18.67;;;;;;;;;;5078152;28;20563;-62
2023/05/23 06:17:41;;;;;;;23.57;16.13;;;;;;;;;;5073506;28;20256;-63
2023/05/23 06:20:12;;;;;;;26.57;18.20;;;;;;;;;;5067429;28;20195;-64
2023/05/23 06:22:42;;;;;;;26.13;16.90;;;;;;;;;;5079955;28;20202;-65
2023/05/23 06:25:10;;;;;;;22.53;17.33;;;;;;;;;;5076451;28;20211;-64
2023/05/23 06:27:41;;;;;;;23.90;17.07;;;;;;;;;;5073627;28;20518;-65
2023/05/23 06:30:09;;;;;;;28.27;17.17;;;;;;;;;;5073715;28;20205;-64
2023/05/23 06:32:38;;;;;;;25.67;17.97;;;;;;;;;;5079479;28;20209;-62
2023/05/23 06:35:06;;;;;;;29.00;19.23;;;;;;;;;;5079796;28;20256;-61
2023/05/23 06:37:38;;;;;;;34.27;18.60;;;;;;;;;;5079389;28;20679;-62
2023/05/23 06:40:08;;;;;;;29.90;18.70;;;;;;;;;;5079699;28;20210;-61
2023/05/23 06:42:36;;;;;;;27.00;18.03;;;;;;;;;;5079612;28;20210;-61
2023/05/23 06:45:05;;;;;;;30.27;18.27;;;;;;;;;;5079436;28;20202;-62
2023/05/23 06:47:33;;;;;;;28.10;18.00;;;;;;;;;;5078929;28;20288;-62
2023/05/23 06:50:01;;;;;;;31.77;19.40;;;;;;;;;;5079328;28;20202;-62
2023/05/23 06:52:29;;;;;;;27.70;17.23;;;;;;;;;;5079268;28;20206;-63
2023/05/23 06:54:57;;;;;;;31.40;19.27;;;;;;;;;;5078929;28;20230;-62
2023/05/23 06:57:26;;;;;;;27.53;18.70;;;;;;;;;;5079017;28;20236;-62
2023/05/23 06:59:54;;;;;;;27.93;17.50;;;;;;;;;;5079128;28;20206;-62
2023/05/23 07:02:22;;;;;;;26.87;17.77;;;;;;;;;;5078589;28;20240;-62
2023/05/23 07:04:51;;;;;;;29.23;18.90;;;;;;;;;;5078983;28;20596;-63
2023/05/23 07:07:19;;;;;;;29.13;18.53;;;;;;;;;;5078838;28;20210;-61
2023/05/23 07:09:47;;;;;;;26.17;19.67;;;;;;;;;;5079058;28;20293;-61
2023/05/23 07:12:15;;;;;;;25.70;18.57;;;;;;;;;;5079310;28;20240;-61
2023/05/23 07:14:45;;;;;;;28.87;18.23;;;;;;;;;;5078644;28;20363;-62
2023/05/23 07:17:13;;;;;;;32.00;18.33;;;;;;;;;;5078388;28;20206;-62
2023/05/23 07:19:41;;;;;;;24.83;17.00;;;;;;;;;;5078627;28;20649;-65
2023/05/23 07:22:12;;;;;;;30.87;18.13;;;;;;;;;;5078178;28;20206;-64
2023/05/23 07:24:40;;;;;;;26.47;18.30;;;;;;;;;;5078104;28;20229;-65
2023/05/23 07:27:08;;;;;;;29.43;17.77;;;;;;;;;;5067834;28;20226;-63
2023/05/23 07:29:36;;;;;;;25.70;18.17;;;;;;;;;;5072553;28;20230;-63
2023/05/23 07:32:06;;;;;;;26.87;18.80;;;;;;;;;;5078440;28;20263;-66
2023/05/23 07:34:34;;;;;;;24.37;18.73;;;;;;;;;;5078695;28;20213;-65
2023/05/23 07:37:02;;;;;;;30.00;17.33;;;;;;;;;;5078151;28;20593;-65
2023/05/23 07:39:30;;;;;;;27.00;18.10;;;;;;;;;;5078219;28;20210;-64
2023/05/23 07:41:58;;;;;;;28.97;17.83;;;;;;;;;;5078177;28;20221;-64
2023/05/23 07:44:26;;;;;;;30.97;17.67;;;;;;;;;;5078515;28;20206;-64
2023/05/23 07:46:54;;;;;;;28.13;18.10;;;;;;;;;;5077837;28;20756;-64
2023/05/23 07:49:24;;;;;;;29.17;19.47;;;;;;;;;;5078537;28;20222;-67
2023/05/23 07:51:52;;;;;;;25.37;18.63;;;;;;;;;;5078045;28;20210;-64
2023/05/23 07:54:20;;;;;;;27.70;17.27;;;;;;;;;;5078201;28;20217;-63
2023/05/23 07:56:48;;;;;;;27.80;18.53;;;;;;;;;;5077785;28;20238;-65
2023/05/23 07:59:16;;;;;;;24.57;17.20;;;;;;;;;;5078274;28;20217;-65
2023/05/23 08:01:44;;;;;;;29.53;17.47;;;;;;;;;;5077475;28;20238;-65
2023/05/23 08:04:16;;;;;;;29.83;18.50;;;;;;;;;;5078220;28;20204;-65
2023/05/23 08:06:46;;;;;;;27.97;18.40;;;;;;;;;;5077926;28;20254;-65
2023/05/23 08:09:31;;;;;;;23.47;18.00;;;;;;;;;;5067601;28;20285;-65
2023/05/23 08:12:02;;;;;;;26.37;18.80;;;;;;;;;;5078157;28;20202;-65
2023/05/23 08:14:31;;;;;;;27.37;18.20;;;;;;;;;;5077918;28;20289;-65
2023/05/23 08:17:17;;;;;;;30.97;18.13;;;;;;;;;;5077509;28;20202;-65
2023/05/23 08:19:45;;;;;;;26.57;17.83;;;;;;;;;;5077868;28;20212;-65
2023/05/23 08:22:14;;;;;;;26.83;18.07;;;;;;;;;;5077594;28;20202;-64
2023/05/23 08:24:42;;;;;;;30.47;19.37;;;;;;;;;;5077616;28;20256;-65
2023/05/23 08:27:10;;;;;;;28.97;19.07;;;;;;;;;;5077715;28;20218;-66
2023/05/23 08:29:43;;;;;;;27.00;17.10;;;;;;;;;;5078201;28;20243;-64
2023/05/23 08:32:11;;;;;;;31.10;18.70;;;;;;;;;;5077476;28;20257;-63
2023/05/23 08:34:40;;;;;;;30.83;18.80;;;;;;;;;;5077133;28;20210;-65
2023/05/23 08:37:10;;;;;;;28.93;19.27;;;;;;;;;;5077648;28;20229;-65
2023/05/23 08:39:40;;;;;;;28.57;19.30;;;;;;;;;;5077843;28;20206;-65
2023/05/23 08:42:08;;;;;;;30.30;18.83;;;;;;;;;;5077956;28;20215;-65
2023/05/23 08:44:36;;;;;;;28.40;19.80;;;;;;;;;;5077663;28;20208;-65
2023/05/23 08:47:05;;;;;;;29.13;19.30;;;;;;;;;;5066527;28;20222;-65
2023/05/23 08:49:33;;;;;;;30.50;19.90;;;;;;;;;;5063541;28;20209;-65
2023/05/23 08:52:02;;;;;;;32.97;20.60;;;;;;;;;;5073219;28;20577;-65
2023/05/23 08:54:31;;;;;;;29.40;18.10;;;;;;;;;;5077155;28;20202;-64
2023/05/23 08:57:01;;;;;;;30.97;19.93;;;;;;;;;;5076699;28;20622;-65
2023/05/23 08:59:30;;;;;;;33.13;19.07;;;;;;;;;;5076991;28;20596;-64
2023/05/23 09:01:59;;;;;;;27.67;18.33;;;;;;;;;;5076325;28;20237;-64
2023/05/23 09:04:28;;;;;;;30.53;19.43;;;;;;;;;;5076767;28;20535;-65
2023/05/23 09:06:56;;;;;;;29.53;18.87;;;;;;;;;;5076593;28;20550;-65
2023/05/23 09:09:25;;;;;;;32.70;19.73;;;;;;;;;;5077256;28;20214;-64
2023/05/23 09:11:54;;;;;;;31.97;20.23;;;;;;;;;;5076959;28;20668;-65
2023/05/23 09:14:23;;;;;;;30.30;20.43;;;;;;;;;;5076742;28;20240;-64
2023/05/23 09:16:51;;;;;;;30.17;19.37;;;;;;;;;;5076185;28;20796;-65
2023/05/23 09:19:19;;;;;;;30.30;18.93;;;;;;;;;;5076997;28;20268;-64
2023/05/23 09:21:48;;;;;;;28.47;18.63;;;;;;;;;;5077311;28;20245;-65
2023/05/23 09:24:16;;;;;;;36.63;20.77;;;;;;;;;;5077143;28;20232;-64
2023/05/23 09:26:48;;;;;;;30.00;19.23;;;;;;;;;;5077195;28;20225;-65
2023/05/23 09:29:19;;;;;;;28.97;18.27;;;;;;;;;;5077258;28;20206;-65
2023/05/23 09:31:49;;;;;;;27.80;19.13;;;;;;;;;;5075179;28;20206;-62
2023/05/23 09:34:17;;;;;;;29.60;19.97;;;;;;;;;;5074269;28;20206;-59
2023/05/23 09:36:50;;;;;;;29.83;19.13;;;;;;;;;;5073604;28;20264;-61
2023/05/23 09:39:19;;;;;;;27.07;18.43;;;;;;;;;;5067112;28;20203;-60
2023/05/23 09:41:48;;;;;;;31.83;18.73;;;;;;;;;;5076538;28;20202;-61
2023/05/23 09:44:22;;;;;;;32.03;19.43;;;;;;;;;;5073896;28;20662;-61
2023/05/23 09:46:52;;;;;;;30.77;19.07;;;;;;;;;;5071541;28;20221;-62
2023/05/23 09:49:21;;;;;;;28.47;18.90;;;;;;;;;;5068917;28;20207;-62
2023/05/23 09:51:58;;;;;;;28.20;18.93;;;;;;;;;;5076587;28;20199;-61
2023/05/23 09:54:26;;;;;;;33.47;18.70;;;;;;;;;;5069438;28;20285;-63
2023/05/23 09:56:55;;;;;;;30.07;19.37;;;;;;;;;;5069625;28;20234;-62
2023/05/23 09:59:27;;;;;;;31.47;18.43;;;;;;;;;;5073797;28;20253;-61
2023/05/23 10:01:57;;;;;;;28.70;18.40;;;;;;;;;;5066267;28;20227;-62
2023/05/23 10:04:25;;;;;;;26.80;18.10;;;;;;;;;;5079254;28;20203;-62
2023/05/23 10:06:57;;;;;;;27.87;17.70;;;;;;;;;;5076719;28;20241;-61
2023/05/23 10:09:27;;;;;;;25.63;17.10;;;;;;;;;;5073218;28;20210;-60
2023/05/23 10:12:21;;;;;;;31.93;17.87;;;;;;;;;;5076772;28;20604;-61
2023/05/23 10:14:52;;;;;;;28.57;17.70;;;;;;;;;;5075958;28;20199;-60
2023/05/23 10:17:24;;;;;;;26.13;17.97;;;;;;;;;;5076697;28;20229;-63
2023/05/23 10:19:56;;;;;;;30.83;18.17;;;;;;;;;;5071741;28;20201;-64
2023/05/23 10:22:25;;;;;;;30.23;16.77;;;;;;;;;;5072737;28;20206;-63
2023/05/23 10:24:53;;;;;;;27.63;16.57;;;;;;;;;;5073600;28;20198;-64
2023/05/23 10:27:21;;;;;;;26.97;18.30;;;;;;;;;;5070403;28;20666;-64
2023/05/23 10:29:50;;;;;;;30.53;18.13;;;;;;;;;;5076709;28;20205;-64
2023/05/23 10:32:18;;;;;;;25.97;18.30;;;;;;;;;;5079258;28;20213;-64
2023/05/23 10:34:54;;;;;;;29.97;18.80;;;;;;;;;;5079388;28;20206;-63
2023/05/23 10:37:25;;;;;;;29.30;18.63;;;;;;;;;;5079645;28;20226;-64
2023/05/23 10:39:58;;;;;;;31.10;18.07;;;;;;;;;;5079833;28;20206;-65
2023/05/23 10:42:31;;;;;;;28.33;17.67;;;;;;;;;;5078565;28;20210;-64
2023/05/23 10:45:17;;;;;;;28.20;17.30;;;;;;;;;;5070596;28;20224;-63
2023/05/23 10:47:47;;;;;;;29.70;18.23;;;;;;;;;;5078971;28;20198;-63
2023/05/23 10:50:30;;;;;;;33.80;18.50;;;;;;;;;;5079596;28;20210;-63
2023/05/23 10:56:31;;;;;;;29.30;18.17;;;;;;;;;;5063757;28;20229;-63
2023/05/23 10:58:59;;;;;;;31.80;18.97;;;;;;;;;;5069763;28;20233;-62
2023/05/23 11:01:27;;;;;;;29.50;19.07;;;;;;;;;;5072088;28;20234;-64
2023/05/23 11:03:56;;;;;;;30.40;18.73;;;;;;;;;;5065267;28;20245;-63
2023/05/23 11:06:32;;;;;;;31.70;18.97;;;;;;;;;;5077736;28;20241;-63
2023/05/23 11:09:04;;;;;;;33.77;19.50;;;;;;;;;;5071744;28;20209;-63
2023/05/23 11:11:57;;;;;;;33.50;19.17;;;;;;;;;;5078489;28;20646;-63
2023/05/23 11:14:34;;;;;;;31.07;19.10;;;;;;;;;;5069763;28;20300;-63
2023/05/23 11:17:15;;;;;;;32.73;19.70;;;;;;;;;;5078408;28;20279;-63
2023/05/23 11:19:55;;;;;;;30.80;18.47;;;;;;;;;;5078856;28;20578;-63
2023/05/23 11:22:31;;;;;;;26.40;18.23;;;;;;;;;;5078870;28;20221;-64
2023/05/23 11:25:11;;;;;;;27.07;17.37;;;;;;;;;;5078533;28;20285;-63
2023/05/23 11:27:45;;;;;;;30.13;18.30;;;;;;;;;;5078484;28;20579;-63
2023/05/23 11:30:23;;;;;;;27.37;17.97;;;;;;;;;;5078681;28;20210;-63
2023/05/23 11:32:52;;;;;;;28.67;16.80;;;;;;;;;;5078433;28;20263;-63
2023/05/23 11:35:21;;;;;;;30.60;18.37;;;;;;;;;;5078357;28;20249;-63
2023/05/23 11:37:50;;;;;;;27.13;16.77;;;;;;;;;;5075708;28;20218;-64
2023/05/23 11:40:34;;;;;;;26.37;16.63;;;;;;;;;;5071409;28;20581;-63
2023/05/23 11:43:07;;;;;;;22.53;16.43;;;;;;;;;;5078334;28;20673;-63
2023/05/23 11:45:36;;;;;;;25.00;15.67;;;;;;;;;;5077857;28;20221;-62
2023/05/23 11:48:08;;;;;;;22.93;15.23;;;;;;;;;;5078085;28;20662;-64
2023/05/23 11:50:43;;;;;;;22.83;15.60;;;;;;;;;;5078193;28;20259;-64
2023/05/23 11:53:15;;;;;;;25.70;16.07;;;;;;;;;;5078180;28;20652;-64
2023/05/23 11:55:48;;;;;;;22.50;15.70;;;;;;;;;;5078371;28;20304;-64
2023/05/23 11:58:16;;;;;;;23.40;16.07;;;;;;;;;;5078443;28;20234;-63
2023/05/23 12:00:45;;;;;;;23.87;15.53;;;;;;;;;;5077855;28;20269;-64
2023/05/23 12:03:13;;;;;;;25.33;15.50;;;;;;;;;;5078046;28;20213;-65
2023/05/23 12:05:43;;;;;;;24.57;15.93;;;;;;;;;;5077883;28;20230;-64
2023/05/23 12:08:12;;;;;;;29.73;16.17;;;;;;;;;;5077407;28;20209;-63
2023/05/23 12:10:50;;;;;;;19.67;15.13;;;;;;;;;;5077638;28;20202;-63
2023/05/23 12:13:18;;;;;;;26.97;15.73;;;;;;;;;;5077689;28;20213;-63
2023/05/23 12:15:46;;;;;;;23.27;15.87;;;;;;;;;;5077696;28;20226;-64
2023/05/23 12:18:17;;;;;;;24.90;15.57;;;;;;;;;;5077602;28;20727;-63
2023/05/23 12:20:45;;;;;;;22.37;15.17;;;;;;;;;;5072293;28;20662;-63
2023/05/23 12:23:18;;;;;;;24.47;15.97;;;;;;;;;;5064749;28;20229;-63
2023/05/23 12:25:49;;;;;;;20.10;14.43;;;;;;;;;;5067151;28;20244;-63
2023/05/23 12:28:19;;;;;;;23.70;14.63;;;;;;;;;;5070270;28;20196;-65
2023/05/23 12:30:47;;;;;;;26.40;15.43;;;;;;;;;;5068138;28;20227;-65
2023/05/23 12:33:15;;;;;;;22.87;15.13;;;;;;;;;;5067512;28;20646;-65
2023/05/23 12:35:44;;;;;;;23.10;14.73;;;;;;;;;;5075251;28;20272;-64
2023/05/23 12:38:15;;;;;;;22.43;14.87;;;;;;;;;;5077950;28;20218;-64
2023/05/23 12:40:43;;;;;;;28.27;16.27;;;;;;;;;;5077600;28;20253;-63
2023/05/23 12:43:11;;;;;;;24.13;16.20;;;;;;;;;;5077881;28;20263;-64
2023/05/23 12:45:42;;;;;;;22.43;14.77;;;;;;;;;;5077533;28;20226;-64
2023/05/23 12:48:10;;;;;;;26.20;17.27;;;;;;;;;;5077590;28;20202;-63
2023/05/23 12:50:38;;;;;;;22.57;16.03;;;;;;;;;;5077459;28;20604;-64
2023/05/23 12:53:06;;;;;;;24.80;17.27;;;;;;;;;;5077552;28;20210;-64
2023/05/23 12:55:34;;;;;;;25.10;16.93;;;;;;;;;;5077379;28;20713;-64
2023/05/23 12:58:02;;;;;;;22.27;15.43;;;;;;;;;;5077343;28;20697;-64
2023/05/23 13:00:30;;;;;;;24.07;16.67;;;;;;;;;;5077024;28;20238;-64
2023/05/23 13:03:00;;;;;;;25.30;17.10;;;;;;;;;;5077649;28;20210;-64
2023/05/23 13:05:28;;;;;;;27.40;17.60;;;;;;;;;;5077135;28;20804;-64
2023/05/23 13:07:58;;;;;;;26.17;17.67;;;;;;;;;;5077082;28;20674;-65
2023/05/23 13:10:26;;;;;;;26.70;16.90;;;;;;;;;;5067579;28;20237;-64
2023/05/23 13:12:57;;;;;;;29.13;18.03;;;;;;;;;;5077529;28;20292;-64
2023/05/23 13:15:25;;;;;;;24.47;17.07;;;;;;;;;;5077244;28;20312;-65
2023/05/23 13:17:53;;;;;;;29.90;17.00;;;;;;;;;;5077333;28;20218;-64
2023/05/23 13:20:23;;;;;;;24.70;17.00;;;;;;;;;;5078217;28;20202;-64
2023/05/23 13:22:51;;;;;;;27.07;17.93;;;;;;;;;;5080854;28;20206;-65
2023/05/23 13:25:19;;;;;;;29.30;17.77;;;;;;;;;;5081155;28;20237;-63
2023/05/23 13:27:47;;;;;;;24.50;17.27;;;;;;;;;;5080815;28;20242;-64
2023/05/23 13:30:16;;;;;;;25.83;17.20;;;;;;;;;;5080949;28;20206;-63
2023/05/23 13:32:44;;;;;;;25.17;16.97;;;;;;;;;;5080942;28;20650;-63
2023/05/23 13:35:12;;;;;;;23.17;15.77;;;;;;;;;;5081176;28;20222;-63
2023/05/23 13:37:41;;;;;;;27.27;18.13;;;;;;;;;;5081117;28;20211;-63
2023/05/23 13:40:12;;;;;;;28.53;17.07;;;;;;;;;;5069352;28;20601;-63
2023/05/23 13:42:40;;;;;;;31.47;16.47;;;;;;;;;;5073994;28;20217;-62
2023/05/23 13:45:08;;;;;;;25.23;17.50;;;;;;;;;;5080500;28;20273;-64
2023/05/23 13:47:36;;;;;;;28.40;17.90;;;;;;;;;;5080546;28;20669;-63
2023/05/23 13:50:05;;;;;;;23.93;16.67;;;;;;;;;;5080495;28;20581;-63
2023/05/23 13:52:33;;;;;;;25.03;17.17;;;;;;;;;;5080332;28;20210;-61
2023/05/23 13:55:03;;;;;;;25.63;16.43;;;;;;;;;;5076891;28;20205;-61
2023/05/23 13:57:31;;;;;;;26.27;16.67;;;;;;;;;;5073193;28;20240;-62
2023/05/23 13:59:59;;;;;;;28.13;17.00;;;;;;;;;;5079926;28;20288;-62
2023/05/23 14:02:29;;;;;;;24.43;17.57;;;;;;;;;;5075599;28;20689;-59
2023/05/23 14:04:57;;;;;;;26.00;17.40;;;;;;;;;;5079691;28;20199;-60
2023/05/23 14:07:25;;;;;;;25.20;15.90;;;;;;;;;;5079670;28;20230;-60
2023/05/23 14:09:53;;;;;;;21.33;16.33;;;;;;;;;;5079136;28;20203;-60
2023/05/23 14:12:22;;;;;;;31.63;16.97;;;;;;;;;;5079931;28;20211;-63
2023/05/23 14:14:50;;;;;;;25.43;16.13;;;;;;;;;;5079968;28;20208;-62
2023/05/23 14:17:18;;;;;;;28.97;16.33;;;;;;;;;;5079722;28;20630;-63
2023/05/23 14:19:46;;;;;;;25.00;15.30;;;;;;;;;;5077398;28;20253;-60
2023/05/23 14:22:15;;;;;;;21.33;13.67;;;;;;;;;;5076648;28;20210;-60
2023/05/23 14:24:43;;;;;;;23.63;14.27;;;;;;;;;;5079936;28;20212;-61
2023/05/23 14:27:11;;;;;;;20.17;14.37;;;;;;;;;;5079479;28;20223;-61
2023/05/23 14:29:40;;;;;;;17.93;13.47;;;;;;;;;;5079864;28;20235;-61
2023/05/23 14:32:08;;;;;;;21.50;13.53;;;;;;;;;;5078205;28;20708;-60